| time (UTC) | temp C | wind direction | speed KPH | gust KPH | rain 1hr cm | rain 24hr cm | rain mn cm | humidity % | barometer mb |
| 20260509150022 | 17 | 257 | 9.7 | 19.3 | 0.00 | 0.00 | 0.00 | 63 | 1002.7 |
| 20260509144517 | 16 | 268 | 9.7 | 24.1 | 0.00 | 0.00 | 0.00 | 65 | 1002.6 |
| 20260509143020 | 16 | 251 | 9.7 | 20.9 | 0.00 | 0.00 | 0.00 | 67 | 1002.6 |
| 20260509141514 | 15 | 264 | 6.4 | 14.5 | 0.00 | 0.00 | 0.00 | 68 | 1002.5 |
| 20260509140010 | 15 | 277 | 9.7 | 20.9 | 0.00 | 0.00 | 0.00 | 70 | 1002.5 |
| 20260509134507 | 15 | 286 | 4.8 | 17.7 | 0.00 | 0.00 | 0.00 | 72 | 1002.3 |
| 20260509133004 | 14 | 275 | 4.8 | 16.1 | 0.00 | 0.00 | 0.00 | 74 | 1002.3 |
| 20260509131603 | 13 | 278 | 8.0 | 25.7 | 0.00 | 0.00 | 0.00 | 75 | 1002.7 |
| 20260509130108 | 13 | 268 | 8.0 | 19.3 | 0.00 | 0.00 | 0.00 | 76 | 1002.6 |
| 20260509124611 | 13 | 260 | 3.2 | 14.5 | 0.00 | 0.00 | 0.00 | 77 | 1002.5 |
| 20260509123059 | 12 | 264 | 6.4 | 16.1 | 0.00 | 0.00 | 0.00 | 78 | 1002.6 |
| 20260509121612 | 12 | 259 | 8.0 | 24.1 | 0.00 | 0.00 | 0.00 | 79 | 1002.4 |
| 20260509120057 | 12 | 273 | 4.8 | 14.5 | 0.00 | 0.00 | 0.00 | 80 | 1002.6 |
| 20260509114556 | 12 | 257 | 6.4 | 16.1 | 0.00 | 0.00 | 0.00 | 81 | 1002.4 |
| 20260509113058 | 12 | 233 | 3.2 | 12.9 | 0.00 | 0.00 | 0.00 | 81 | 1002.2 |
| 20260509111603 | 12 | 223 | 4.8 | 11.3 | 0.00 | 0.00 | 0.00 | 81 | 1002.2 |
| 20260509110054 | 12 | 283 | 6.4 | 16.1 | 0.00 | 0.00 | 0.00 | 80 | 1002.1 |
| 20260509104552 | 12 | 248 | 6.4 | 14.5 | 0.00 | 0.03 | 0.00 | 80 | 1001.9 |
| 20260509101550 | 12 | 212 | 6.4 | 12.9 | 0.00 | 0.03 | 0.00 | 81 | 1001.8 |
| 20260509100044 | 11 | 251 | 3.2 | 9.7 | 0.00 | 0.03 | 0.00 | 81 | 1002.1 |
| 20260509094543 | 12 | 207 | 3.2 | 9.7 | 0.00 | 0.03 | 0.00 | 81 | 1002.3 |
| 20260509093041 | 11 | 250 | 1.6 | 8.0 | 0.00 | 0.03 | 0.00 | 82 | 1002.6 |
| 20260509091540 | 11 | 260 | 3.2 | 11.3 | 0.00 | 0.03 | 0.00 | 82 | 1002.7 |
| 20260509090044 | 11 | 212 | 4.8 | 11.3 | 0.00 | 0.03 | 0.00 | 82 | 1002.5 |
| 20260509084542 | 11 | 278 | 3.2 | 9.7 | 0.00 | 0.03 | 0.00 | 82 | 1002.7 |
| 20260509083046 | 11 | 255 | 1.6 | 12.9 | 0.00 | 0.03 | 0.00 | 81 | 1002.7 |
| 20260509081535 | 11 | 222 | 3.2 | 14.5 | 0.00 | 0.03 | 0.00 | 81 | 1002.6 |
| 20260509080034 | 12 | 224 | 4.8 | 14.5 | 0.00 | 0.03 | 0.00 | 80 | 1002.6 |
| 20260509074532 | 12 | 239 | 3.2 | 12.9 | 0.00 | 0.03 | 0.00 | 80 | 1002.7 |
| 20260509073029 | 12 | 259 | 3.2 | 11.3 | 0.00 | 0.03 | 0.00 | 79 | 1002.9 |
| 20260509071526 | 12 | 260 | 1.6 | 9.7 | 0.00 | 0.03 | 0.00 | 78 | 1003.1 |
| 20260509070025 | 12 | 276 | 3.2 | 12.9 | 0.00 | 0.03 | 0.00 | 77 | 1003.4 |
| 20260509064522 | 12 | 194 | 4.8 | 12.9 | 0.00 | 0.03 | 0.00 | 77 | 1003.5 |
| 20260509063021 | 12 | 257 | 4.8 | 14.5 | 0.00 | 0.03 | 0.00 | 76 | 1003.7 |
| 20260509061522 | 13 | 228 | 3.2 | 17.7 | 0.00 | 0.03 | 0.00 | 76 | 1003.7 |
| 20260509060017 | 13 | 242 | 9.7 | 16.1 | 0.00 | 0.03 | 0.00 | 76 | 1004.0 |
| 20260509054515 | 13 | 232 | 6.4 | 14.5 | 0.00 | 0.03 | 0.00 | 76 | 1004.1 |
| 20260509053013 | 13 | 264 | 3.2 | 17.7 | 0.00 | 0.03 | 0.00 | 75 | 1004.0 |
| 20260509051511 | 13 | 269 | 6.4 | 17.7 | 0.00 | 0.03 | 0.00 | 74 | 1004.0 |
| 20260509050109 | 13 | 244 | 4.8 | 16.1 | 0.00 | 0.03 | 0.00 | 73 | 1004.1 |
| 20260509044508 | 13 | 205 | 3.2 | 14.5 | 0.00 | 0.03 | 0.03 | 72 | 1004.0 |
| 20260509043007 | 14 | 232 | 4.8 | 14.5 | 0.00 | 0.03 | 0.03 | 71 | 1004.1 |
| 20260509041507 | 14 | 218 | 8.0 | 22.5 | 0.00 | 0.03 | 0.03 | 69 | 1004.0 |
| 20260509040005 | 13 | 245 | 8.0 | 22.5 | 0.00 | 0.03 | 0.03 | 69 | 1004.0 |
| 20260509034505 | 13 | 209 | 1.6 | 12.9 | 0.00 | 0.03 | 0.03 | 69 | 1004.3 |
| 20260509033003 | 12 | 210 | 6.4 | 11.3 | 0.00 | 0.03 | 0.03 | 68 | 1004.2 |
| 20260509031502 | 12 | 208 | 3.2 | 8.0 | 0.00 | 0.03 | 0.03 | 67 | 1004.3 |
| 20260509030001 | 12 | 207 | 3.2 | 8.0 | 0.00 | 0.03 | 0.03 | 66 | 1004.4 |
| 20260509024501 | 12 | 133 | 0.0 | 3.2 | 0.00 | 0.03 | 0.03 | 65 | 1004.3 |
| 20260509023103 | 12 | 133 | 0.0 | 4.8 | 0.00 | 0.03 | 0.03 | 64 | 1004.5 |
| 20260509021600 | 13 | 131 | 1.6 | 4.8 | 0.00 | 0.03 | 0.03 | 64 | 1004.5 |
| 20260509020100 | 13 | 123 | 1.6 | 4.8 | 0.00 | 0.03 | 0.03 | 63 | 1004.6 |
| 20260509014602 | 13 | 132 | 1.6 | 8.0 | 0.00 | 0.03 | 0.03 | 62 | 1004.5 |
| 20260509013105 | 13 | 107 | 1.6 | 6.4 | 0.00 | 0.03 | 0.03 | 62 | 1004.5 |
| 20260509011558 | 14 | 130 | 4.8 | 12.9 | 0.00 | 0.03 | 0.03 | 62 | 1004.4 |
| 20260509010058 | 15 | 119 | 4.8 | 12.9 | 0.00 | 0.03 | 0.03 | 61 | 1004.4 |
| 20260509004601 | 15 | 141 | 1.6 | 9.7 | 0.00 | 0.03 | 0.03 | 59 | 1004.3 |
| 20260509003055 | 15 | 136 | 3.2 | 8.0 | 0.00 | 0.03 | 0.03 | 58 | 1004.4 |
| 20260509001554 | 15 | 129 | 4.8 | 9.7 | 0.00 | 0.03 | 0.03 | 58 | 1004.5 |
| 20260509000055 | 15 | 109 | 4.8 | 9.7 | 0.00 | 0.03 | 0.03 | 57 | 1004.6 |
| 20260508234552 | 16 | 123 | 4.8 | 9.7 | 0.00 | 0.03 | 0.03 | 56 | 1004.7 |
| 20260508233057 | 16 | 80 | 4.8 | 11.3 | 0.00 | 0.03 | 0.03 | 56 | 1004.7 |
| 20260508231550 | 16 | 117 | 6.4 | 12.9 | 0.00 | 0.03 | 0.03 | 57 | 1004.8 |
| 20260508230057 | 16 | 110 | 8.0 | 16.1 | 0.00 | 0.03 | 0.03 | 57 | 1004.8 |
| 20260508224547 | 16 | 68 | 6.4 | 14.5 | 0.00 | 0.03 | 0.03 | 58 | 1004.9 |
| 20260508223045 | 16 | 124 | 6.4 | 14.5 | 0.00 | 0.03 | 0.03 | 57 | 1005.0 |
| 20260508221549 | 16 | 110 | 6.4 | 14.5 | 0.00 | 0.03 | 0.03 | 58 | 1004.9 |
| 20260508220045 | 16 | 86 | 9.7 | 16.1 | 0.00 | 0.03 | 0.03 | 60 | 1005.0 |
| 20260508214543 | 16 | 108 | 9.7 | 17.7 | 0.00 | 0.25 | 0.03 | 60 | 1005.2 |
| 20260508213040 | 16 | 92 | 8.0 | 14.5 | 0.00 | 0.25 | 0.03 | 60 | 1005.1 |
| 20260508211539 | 16 | 96 | 4.8 | 16.1 | 0.00 | 0.25 | 0.03 | 60 | 1005.2 |
| 20260508210038 | 16 | 104 | 12.9 | 19.3 | 0.00 | 0.25 | 0.03 | 57 | 1005.4 |
| 20260508204536 | 16 | 70 | 9.7 | 19.3 | 0.00 | 0.25 | 0.03 | 56 | 1005.4 |
| 20260508203034 | 17 | 68 | 9.7 | 19.3 | 0.00 | 0.25 | 0.03 | 53 | 1005.6 |
| 20260508201532 | 17 | 77 | 8.0 | 17.7 | 0.00 | 0.25 | 0.03 | 50 | 1005.8 |
| 20260508200038 | 16 | 59 | 4.8 | 19.3 | 0.00 | 0.25 | 0.03 | 52 | 1006.0 |
| 20260508194529 | 16 | 53 | 8.0 | 16.1 | 0.00 | 0.25 | 0.03 | 49 | 1006.2 |
| 20260508193028 | 16 | 101 | 9.7 | 19.3 | 0.00 | 0.25 | 0.03 | 47 | 1006.4 |
| 20260508191529 | 16 | 84 | 8.0 | 16.1 | 0.00 | 0.25 | 0.03 | 47 | 1006.5 |
| 20260508190025 | 17 | 77 | 8.0 | 16.1 | 0.00 | 0.25 | 0.03 | 47 | 1006.7 |
| 20260508184525 | 17 | 20 | 4.8 | 12.9 | 0.00 | 0.25 | 0.03 | 44 | 1006.8 |
| 20260508183021 | 17 | 127 | 8.0 | 16.1 | 0.00 | 0.25 | 0.03 | 43 | 1007.0 |
| 20260508181520 | 18 | 124 | 8.0 | 12.9 | 0.00 | 0.25 | 0.03 | 45 | 1007.1 |
| 20260508180019 | 18 | 133 | 4.8 | 12.9 | 0.00 | 0.25 | 0.03 | 41 | 1007.4 |
| 20260508174522 | 18 | 145 | 3.2 | 11.3 | 0.00 | 0.25 | 0.03 | 39 | 1007.7 |
| 20260508173014 | 17 | 96 | 8.0 | 11.3 | 0.00 | 0.25 | 0.03 | 36 | 1007.9 |
| 20260508171510 | 17 | 233 | 3.2 | 11.3 | 0.00 | 0.25 | 0.03 | 40 | 1008.1 |
| 20260508170007 | 17 | 65 | 3.2 | 11.3 | 0.00 | 0.25 | 0.03 | 41 | 1008.4 |
| 20260508164511 | 17 | 287 | 0.0 | 19.3 | 0.00 | 0.25 | 0.03 | 41 | 1008.5 |
| 20260508163001 | 16 | 118 | 1.6 | 8.0 | 0.00 | 0.25 | 0.03 | 41 | 1009.0 |
| 20260508161559 | 16 | 127 | 1.6 | 14.5 | 0.00 | 0.25 | 0.03 | 40 | 1009.1 |
| 20260508160058 | 16 | 226 | 3.2 | 8.0 | 0.00 | 0.25 | 0.03 | 45 | 1009.1 |
| 20260508154557 | 15 | 179 | 3.2 | 11.3 | 0.00 | 0.25 | 0.03 | 48 | 1009.3 |
| 20260508153051 | 15 | 166 | 4.8 | 9.7 | 0.00 | 0.25 | 0.03 | 50 | 1009.5 |
| 20260508151548 | 15 | 250 | 0.0 | 8.0 | 0.00 | 0.25 | 0.03 | 55 | 1009.5 |